createdAt,value
2018-04-12T00:00:51.017Z,13.80
2018-04-12T00:03:18.589Z,13.80
2018-04-12T00:05:46.117Z,13.80
2018-04-12T00:08:13.642Z,13.90
2018-04-12T00:10:41.186Z,13.90
2018-04-12T00:13:08.709Z,13.80
2018-04-12T00:15:36.280Z,13.80
2018-04-12T00:18:04.566Z,13.80
2018-04-12T00:20:32.871Z,13.90
2018-04-12T00:23:00.389Z,13.90
2018-04-12T00:25:27.918Z,13.90
2018-04-12T00:27:55.444Z,13.80
2018-04-12T00:30:22.973Z,13.80
2018-04-12T00:32:50.507Z,13.80
2018-04-12T00:35:18.072Z,13.80
2018-04-12T00:37:45.626Z,13.70
2018-04-12T00:40:13.164Z,13.70
2018-04-12T00:42:40.678Z,13.70
2018-04-12T00:45:09.144Z,13.70
2018-04-12T00:47:36.705Z,13.70
2018-04-12T00:50:05.039Z,13.60
2018-04-12T00:52:32.545Z,13.50
2018-04-12T00:55:00.083Z,13.50
2018-04-12T00:57:27.609Z,13.40
2018-04-12T00:59:55.169Z,13.40
2018-04-12T01:02:22.681Z,13.40
2018-04-12T01:04:50.201Z,13.30
2018-04-12T01:07:17.720Z,13.40
2018-04-12T01:09:45.239Z,13.40
2018-04-12T01:12:12.754Z,13.40
2018-04-12T01:14:40.271Z,13.40
2018-04-12T01:17:07.899Z,13.40
2018-04-12T01:19:35.429Z,13.50
2018-04-12T01:22:02.941Z,13.50
2018-04-12T01:24:30.469Z,13.50
2018-04-12T01:26:58.022Z,13.40
2018-04-12T01:29:25.573Z,13.30
2018-04-12T01:31:53.094Z,13.40
2018-04-12T01:34:20.604Z,13.40
2018-04-12T01:36:48.142Z,13.40
2018-04-12T01:39:15.714Z,13.30
2018-04-12T01:41:43.244Z,13.20
2018-04-12T01:44:11.531Z,13.20
2018-04-12T01:46:39.829Z,13.10
2018-04-12T01:49:07.350Z,13.10
2018-04-12T01:51:34.878Z,13.10
2018-04-12T01:54:02.405Z,13.10
2018-04-12T01:56:29.954Z,12.90
2018-04-12T01:58:57.485Z,12.90
2018-04-12T02:01:26.783Z,12.90
2018-04-12T02:03:54.395Z,12.80
2018-04-12T02:06:21.936Z,12.90
2018-04-12T02:08:49.465Z,12.80
2018-04-12T02:11:16.991Z,12.80
2018-04-12T02:13:44.999Z,12.80
2018-04-12T02:16:12.569Z,12.70
2018-04-12T02:18:40.870Z,12.70
2018-04-12T02:21:08.406Z,12.70
2018-04-12T02:23:36.908Z,12.80
2018-04-12T02:26:04.434Z,12.80
2018-04-12T02:28:32.060Z,12.80
2018-04-12T02:30:59.598Z,12.70
2018-04-12T02:33:27.144Z,12.70
2018-04-12T02:35:55.440Z,12.60
2018-04-12T02:38:22.978Z,12.60
2018-04-12T02:40:50.505Z,12.60
2018-04-12T02:43:18.040Z,12.60
2018-04-12T02:45:46.434Z,12.60
2018-04-12T02:48:13.963Z,12.60
2018-04-12T02:50:41.549Z,12.70
2018-04-12T02:53:09.024Z,12.70
2018-04-12T02:55:36.586Z,12.70
2018-04-12T02:58:04.133Z,12.60
2018-04-12T03:00:31.659Z,12.60
2018-04-12T03:02:59.844Z,12.60
2018-04-12T03:05:27.434Z,12.60
2018-04-12T03:07:54.968Z,12.50
2018-04-12T03:10:23.394Z,12.50
2018-04-12T03:12:50.891Z,12.50
2018-04-12T03:15:19.232Z,12.40
2018-04-12T03:17:46.754Z,12.40
2018-04-12T03:20:14.286Z,12.40
2018-04-12T03:22:44.086Z,12.40
2018-04-12T03:25:11.768Z,12.30
2018-04-12T03:27:39.282Z,12.30
2018-04-12T03:30:07.621Z,12.30
2018-04-12T03:32:35.151Z,12.20
2018-04-12T03:35:02.649Z,12.30
2018-04-12T03:37:30.157Z,12.30
2018-04-12T03:39:57.674Z,12.30
2018-04-12T03:42:25.189Z,12.20
2018-04-12T03:44:52.705Z,12.20
2018-04-12T03:47:20.230Z,12.20
2018-04-12T03:49:47.766Z,12.20
2018-04-12T03:52:15.277Z,12.20
2018-04-12T03:54:47.650Z,12.10
2018-04-12T03:57:15.204Z,12.00
2018-04-12T03:59:42.712Z,12.00
2018-04-12T04:02:10.226Z,12.00
2018-04-12T04:04:38.717Z,12.00
2018-04-12T04:07:06.217Z,12.00
2018-04-12T04:09:33.725Z,12.00
2018-04-12T04:12:01.250Z,12.00
2018-04-12T04:14:40.701Z,12.00
2018-04-12T04:17:19.951Z,11.90
2018-04-12T04:19:59.314Z,11.90
2018-04-12T04:22:27.601Z,11.90
2018-04-12T04:24:56.015Z,11.80
2018-04-12T04:27:23.679Z,11.80
2018-04-12T04:29:52.504Z,11.80
2018-04-12T04:32:20.051Z,11.80
2018-04-12T04:34:47.629Z,11.70
2018-04-12T04:37:15.118Z,11.80
2018-04-12T04:39:43.412Z,11.80
2018-04-12T04:42:10.954Z,11.80
2018-04-12T04:44:39.279Z,11.80
2018-04-12T04:47:06.824Z,11.80
2018-04-12T04:49:34.367Z,11.90
2018-04-12T04:52:01.893Z,11.90
2018-04-12T04:54:29.442Z,11.90
2018-04-12T04:56:56.952Z,11.90
2018-04-12T04:59:24.472Z,11.90
2018-04-12T05:01:52.032Z,12.00
2018-04-12T05:04:20.234Z,11.90
2018-04-12T05:06:47.755Z,11.90
2018-04-12T05:09:16.606Z,11.90
2018-04-12T05:11:44.135Z,11.90
2018-04-12T05:14:12.433Z,12.00
2018-04-12T05:16:41.262Z,12.00
2018-04-12T05:19:08.931Z,12.10
2018-04-12T05:21:36.561Z,12.00
2018-04-12T05:24:04.057Z,12.10
2018-04-12T05:26:31.588Z,12.10
2018-04-12T05:28:59.098Z,12.10
2018-04-12T05:31:26.695Z,12.20
2018-04-12T05:33:54.374Z,12.10
2018-04-12T05:36:22.122Z,12.10
2018-04-12T05:38:49.772Z,12.10
2018-04-12T05:41:17.313Z,12.10
2018-04-12T05:43:45.593Z,12.20
2018-04-12T05:46:13.918Z,12.40
2018-04-12T05:48:41.441Z,12.40
2018-04-12T05:51:09.724Z,12.30
2018-04-12T05:53:37.247Z,12.30
2018-04-12T05:56:04.777Z,12.40
2018-04-12T05:58:32.325Z,12.50
2018-04-12T06:00:59.873Z,12.50
2018-04-12T06:03:27.398Z,12.60
2018-04-12T06:05:55.100Z,12.60
2018-04-12T06:08:22.650Z,12.60
2018-04-12T06:10:50.203Z,12.70
2018-04-12T06:13:17.725Z,12.70
2018-04-12T06:15:45.250Z,12.70
2018-04-12T06:18:12.761Z,12.70
2018-04-12T06:20:40.278Z,12.80
2018-04-12T06:23:08.604Z,12.90
2018-04-12T06:25:37.019Z,12.90
2018-04-12T06:28:04.563Z,12.90
2018-04-12T06:30:32.107Z,13.00
2018-04-12T06:33:00.372Z,13.10
2018-04-12T06:35:27.886Z,13.10
2018-04-12T06:37:55.406Z,13.10
2018-04-12T06:40:23.682Z,13.20
2018-04-12T06:42:51.965Z,13.30
2018-04-12T06:45:20.270Z,13.40
2018-04-12T06:47:48.814Z,13.30
2018-04-12T06:50:16.337Z,13.40
2018-04-12T06:52:43.872Z,13.40
2018-04-12T06:55:11.400Z,13.60
2018-04-12T06:57:38.908Z,13.70
2018-04-12T07:00:06.424Z,13.90
2018-04-12T07:02:33.930Z,14.00
2018-04-12T07:05:01.666Z,14.10
2018-04-12T07:07:29.180Z,14.20
2018-04-12T07:09:56.709Z,14.30
2018-04-12T07:12:24.262Z,14.20
2018-04-12T07:14:51.769Z,14.40
2018-04-12T07:17:20.077Z,14.60
2018-04-12T07:19:47.596Z,14.60
2018-04-12T07:22:15.120Z,14.80
2018-04-12T07:24:43.349Z,14.80
2018-04-12T07:27:11.518Z,15.00
2018-04-12T07:29:41.203Z,15.50
2018-04-12T07:32:08.773Z,15.50
2018-04-12T07:34:36.290Z,15.40
2018-04-12T07:37:03.855Z,15.60
2018-04-12T07:39:31.366Z,15.60
2018-04-12T07:41:58.899Z,15.50
2018-04-12T07:44:26.412Z,15.50
2018-04-12T07:46:54.007Z,15.40
2018-04-12T07:49:21.541Z,15.50
2018-04-12T07:51:49.059Z,15.70
2018-04-12T07:54:17.357Z,15.70
2018-04-12T07:56:44.873Z,15.70
2018-04-12T07:59:12.444Z,15.90
2018-04-12T08:01:39.954Z,16.10
2018-04-12T08:04:07.481Z,16.00
2018-04-12T08:06:35.824Z,16.20
2018-04-12T08:09:03.346Z,16.10
2018-04-12T08:11:31.760Z,16.00
2018-04-12T08:13:59.895Z,16.10
2018-04-12T08:16:27.452Z,16.10
2018-04-12T08:18:54.986Z,16.20
2018-04-12T08:21:22.501Z,16.40
2018-04-12T08:23:50.042Z,16.60
2018-04-12T08:26:17.570Z,16.60
2018-04-12T08:28:45.118Z,16.50
2018-04-12T08:31:12.634Z,16.60
2018-04-12T08:33:40.152Z,16.80
2018-04-12T08:36:08.446Z,17.10
2018-04-12T08:38:35.967Z,17.00
2018-04-12T08:41:03.497Z,17.10
2018-04-12T08:43:31.044Z,17.10
2018-04-12T08:45:58.634Z,17.30
2018-04-12T08:48:26.108Z,17.50
2018-04-12T08:50:53.704Z,17.50
2018-04-12T08:53:21.984Z,17.80
2018-04-12T08:55:49.558Z,17.80
2018-04-12T08:58:17.060Z,18.10
2018-04-12T09:00:44.606Z,18.20
2018-04-12T09:03:12.341Z,18.30
2018-04-12T09:05:39.883Z,18.30
2018-04-12T09:08:07.396Z,18.00
2018-04-12T09:10:34.921Z,18.10
2018-04-12T09:13:02.458Z,18.40
2018-04-12T09:15:30.755Z,18.60
2018-04-12T09:17:59.289Z,18.60
2018-04-12T09:20:26.808Z,18.90
2018-04-12T09:22:54.333Z,19.10
2018-04-12T09:25:22.634Z,19.30
2018-04-12T09:27:50.182Z,19.20
2018-04-12T09:30:17.736Z,19.60
2018-04-12T09:32:46.009Z,18.90
2018-04-12T09:35:14.301Z,18.90
2018-04-12T09:37:41.830Z,18.90
2018-04-12T09:40:09.363Z,19.10
2018-04-12T09:42:36.997Z,19.30
2018-04-12T09:45:04.556Z,19.30
2018-04-12T09:47:32.075Z,19.60
2018-04-12T09:50:00.367Z,20.10
2018-04-12T09:52:27.966Z,20.10
2018-04-12T09:54:55.542Z,20.10
2018-04-12T09:57:23.045Z,20.30
2018-04-12T09:59:50.588Z,20.30
2018-04-12T10:02:32.988Z,20.60
2018-04-12T10:05:01.369Z,20.50
2018-04-12T10:07:35.320Z,20.80
2018-04-12T10:10:02.857Z,21.00
2018-04-12T10:12:31.150Z,21.00
2018-04-12T10:14:58.667Z,21.00
2018-04-12T10:17:26.217Z,21.50
2018-04-12T10:19:53.858Z,21.70
2018-04-12T10:22:21.429Z,21.80
2018-04-12T10:24:48.965Z,22.10
2018-04-12T10:27:16.604Z,22.30
2018-04-12T10:29:44.901Z,23.00
2018-04-12T10:32:12.441Z,22.90
2018-04-12T10:34:40.803Z,23.70
2018-04-12T10:37:08.333Z,23.70
2018-04-12T10:39:35.960Z,24.10
2018-04-12T10:42:03.496Z,24.30
2018-04-12T10:44:31.804Z,23.20
2018-04-12T10:46:59.332Z,23.20
2018-04-12T10:49:26.857Z,22.80
2018-04-12T10:51:54.417Z,22.40
2018-04-12T10:54:21.932Z,21.90
2018-04-12T10:56:49.507Z,22.20
2018-04-12T10:59:17.040Z,22.10
2018-04-12T11:01:44.734Z,22.40
2018-04-12T11:04:12.280Z,22.90
2018-04-12T11:06:39.790Z,24.00
2018-04-12T11:09:07.343Z,24.80
2018-04-12T11:11:34.868Z,25.70
2018-04-12T11:14:02.392Z,26.60
2018-04-12T11:16:29.922Z,28.00
2018-04-12T11:18:58.372Z,28.80
2018-04-12T11:21:25.899Z,29.70
2018-04-12T11:23:54.209Z,31.10
2018-04-12T11:26:21.735Z,31.10
2018-04-12T11:28:49.270Z,32.60
2018-04-12T11:31:16.822Z,33.50
2018-04-12T11:33:44.419Z,33.90
2018-04-12T11:36:11.941Z,35.00
2018-04-12T11:38:39.462Z,36.10
2018-04-12T11:41:07.020Z,36.80
2018-04-12T11:43:34.536Z,37.40
2018-04-12T11:46:02.089Z,38.00
2018-04-12T11:48:29.612Z,38.60
2018-04-12T11:50:57.318Z,38.80
2018-04-12T11:53:24.841Z,38.90
2018-04-12T11:55:52.361Z,38.90
2018-04-12T11:58:19.945Z,39.20
2018-04-12T12:00:47.445Z,39.70
2018-04-12T12:03:14.959Z,40.10
2018-04-12T12:05:42.533Z,40.90
2018-04-12T12:08:10.066Z,41.40
2018-04-12T12:10:37.607Z,41.30
2018-04-12T12:13:05.121Z,41.00
2018-04-12T12:15:32.641Z,40.70
2018-04-12T12:18:00.161Z,41.20
2018-04-12T12:20:27.758Z,42.20
2018-04-12T12:22:56.706Z,42.90
2018-04-12T12:25:24.229Z,42.80
2018-04-12T12:27:51.855Z,42.00
2018-04-12T12:30:19.369Z,41.70
2018-04-12T12:32:46.884Z,41.00
2018-04-12T12:35:15.207Z,40.80
2018-04-12T12:37:42.710Z,40.80
2018-04-12T12:40:10.223Z,40.40
2018-04-12T12:42:37.837Z,39.40
2018-04-12T12:45:06.132Z,39.50
2018-04-12T12:47:33.657Z,39.50
2018-04-12T12:50:01.991Z,40.00
2018-04-12T12:52:29.509Z,40.00
2018-04-12T12:54:57.034Z,40.50
2018-04-12T12:57:24.585Z,39.80
2018-04-12T12:59:52.139Z,38.30
2018-04-12T13:02:19.686Z,37.90
2018-04-12T13:04:47.291Z,36.70
2018-04-12T13:07:14.831Z,37.30
2018-04-12T13:09:42.357Z,36.20
2018-04-12T13:12:09.889Z,36.10
2018-04-12T13:14:37.420Z,35.80
2018-04-12T13:17:04.979Z,36.70
2018-04-12T13:19:32.494Z,36.90
2018-04-12T13:21:59.999Z,35.80
2018-04-12T13:24:27.608Z,35.60
2018-04-12T13:26:57.219Z,34.50
2018-04-12T13:29:24.762Z,34.50
2018-04-12T13:31:53.133Z,33.90
2018-04-12T13:34:21.434Z,33.90
2018-04-12T13:36:48.994Z,33.90
2018-04-12T13:39:16.529Z,35.30
2018-04-12T13:41:44.808Z,36.90
2018-04-12T13:44:12.397Z,36.80
2018-04-12T13:46:40.644Z,37.30
2018-04-12T13:49:09.415Z,37.10
2018-04-12T13:51:36.930Z,37.10
2018-04-12T13:54:04.773Z,37.30
2018-04-12T13:56:32.369Z,37.70
2018-04-12T13:59:00.146Z,37.90
2018-04-12T14:01:28.374Z,39.00
2018-04-12T14:03:55.913Z,36.10
2018-04-12T14:06:23.431Z,35.90
2018-04-12T14:08:50.975Z,36.60
2018-04-12T14:11:20.363Z,35.60
2018-04-12T14:13:49.732Z,34.70
2018-04-12T14:16:17.453Z,35.20
2018-04-12T14:18:44.972Z,35.00
2018-04-12T14:21:13.256Z,35.80
2018-04-12T14:23:41.571Z,35.50
2018-04-12T14:26:09.128Z,35.50
2018-04-12T14:28:36.653Z,36.00
2018-04-12T14:31:04.216Z,35.00
2018-04-12T14:33:31.745Z,34.10
2018-04-12T14:35:59.311Z,33.70
2018-04-12T14:38:26.948Z,33.90
2018-04-12T14:40:54.498Z,33.80
2018-04-12T14:43:22.152Z,32.70
2018-04-12T14:45:49.680Z,31.10
2018-04-12T14:48:18.009Z,30.50
2018-04-12T14:50:45.549Z,30.40
2018-04-12T14:53:13.161Z,30.50
2018-04-12T14:55:40.722Z,30.60
2018-04-12T14:58:08.247Z,30.20
2018-04-12T15:00:35.788Z,28.80
2018-04-12T15:03:03.367Z,28.50
2018-04-12T15:05:31.662Z,27.90
2018-04-12T15:08:00.013Z,27.80
2018-04-12T15:10:27.636Z,27.70
2018-04-12T15:12:55.949Z,27.80
2018-04-12T15:15:23.477Z,27.80
2018-04-12T15:17:51.811Z,28.00
2018-04-12T15:20:19.422Z,28.00
2018-04-12T15:22:46.960Z,28.10
2018-04-12T15:25:14.570Z,27.60
2018-04-12T15:27:42.161Z,27.50
2018-04-12T15:30:10.592Z,26.80
2018-04-12T15:32:38.212Z,26.70
2018-04-12T15:35:05.763Z,26.50
2018-04-12T15:37:33.310Z,26.40
2018-04-12T15:40:00.944Z,26.20
2018-04-12T15:42:29.390Z,26.10
2018-04-12T15:44:57.979Z,26.30
2018-04-12T15:47:25.501Z,26.30
2018-04-12T15:49:53.958Z,25.80
2018-04-12T15:52:21.522Z,25.80
2018-04-12T15:54:49.073Z,25.60
2018-04-12T15:57:16.625Z,25.50
2018-04-12T15:59:44.160Z,25.40
2018-04-12T16:02:11.748Z,25.30
2018-04-12T16:04:39.299Z,25.40
2018-04-12T16:07:06.815Z,25.50
2018-04-12T16:09:34.834Z,25.60
2018-04-12T16:12:02.651Z,25.30
2018-04-12T16:14:31.783Z,25.40
2018-04-12T16:17:00.423Z,25.50
2018-04-12T16:19:28.501Z,25.40
2018-04-12T16:21:56.080Z,25.00
2018-04-12T16:24:23.631Z,25.00
2018-04-12T16:26:51.159Z,24.80
2018-04-12T16:29:18.729Z,24.60
2018-04-12T16:31:46.280Z,24.50
2018-04-12T16:34:13.809Z,24.40
2018-04-12T16:36:41.394Z,24.40
2018-04-12T16:39:08.924Z,24.40
2018-04-12T16:41:37.293Z,23.80
2018-04-12T16:44:05.662Z,23.50
2018-04-12T16:46:33.193Z,23.40
2018-04-12T16:49:00.775Z,23.60
2018-04-12T16:51:28.306Z,23.50
2018-04-12T16:53:55.852Z,23.60
2018-04-12T16:56:23.387Z,23.70
2018-04-12T16:58:50.921Z,23.50
2018-04-12T17:01:18.462Z,23.40
2018-04-12T17:03:46.041Z,23.30
2018-04-12T17:06:13.531Z,23.30
2018-04-12T17:08:41.060Z,23.20
2018-04-12T17:11:08.600Z,23.10
2018-04-12T17:13:36.203Z,23.00
2018-04-12T17:16:04.557Z,22.90
2018-04-12T17:18:32.172Z,22.80
2018-04-12T17:20:59.776Z,22.90
2018-04-12T17:23:27.327Z,22.90
2018-04-12T17:25:54.861Z,22.80
2018-04-12T17:28:22.461Z,22.50
2018-04-12T17:30:50.014Z,22.40
2018-04-12T17:33:17.514Z,22.40
2018-04-12T17:35:45.037Z,22.30
2018-04-12T17:38:12.558Z,22.30
2018-04-12T17:40:40.111Z,22.20
2018-04-12T17:43:07.620Z,21.90
2018-04-12T17:45:35.186Z,21.70
2018-04-12T17:48:02.752Z,21.70
2018-04-12T17:50:30.313Z,21.70
2018-04-12T17:52:57.859Z,21.70
2018-04-12T17:55:26.209Z,21.50
2018-04-12T17:57:53.747Z,21.40
2018-04-12T18:00:21.268Z,21.40
2018-04-12T18:02:48.805Z,21.30
2018-04-12T18:05:16.360Z,21.30
2018-04-12T18:07:43.895Z,21.30
2018-04-12T18:10:11.522Z,21.30
2018-04-12T18:12:39.081Z,21.30
2018-04-12T18:15:06.628Z,21.30
2018-04-12T18:17:34.186Z,21.20
2018-04-12T18:20:01.797Z,21.10
2018-04-12T18:22:29.367Z,21.10
2018-04-12T18:24:56.881Z,21.00
2018-04-12T18:27:25.205Z,20.90
2018-04-12T18:29:52.760Z,20.90
2018-04-12T18:32:20.389Z,20.90
2018-04-12T18:34:48.663Z,20.80
2018-04-12T18:37:16.954Z,20.80
2018-04-12T18:39:44.485Z,20.80
2018-04-12T18:42:12.776Z,20.70
2018-04-12T18:44:41.130Z,20.70
2018-04-12T18:47:08.676Z,20.70
2018-04-12T18:49:36.663Z,20.70
2018-04-12T18:52:04.973Z,20.50
2018-04-12T18:54:32.579Z,20.50
2018-04-12T18:57:00.215Z,20.50
2018-04-12T18:59:27.847Z,20.50
2018-04-12T19:01:55.377Z,20.40
2018-04-12T19:04:22.892Z,20.50
2018-04-12T19:06:50.488Z,20.40
2018-04-12T19:09:18.050Z,20.50
2018-04-12T19:11:45.631Z,20.50
2018-04-12T19:14:13.173Z,20.30
2018-04-12T19:16:40.722Z,20.30
2018-04-12T19:19:08.673Z,20.30
2018-04-12T19:21:36.227Z,20.20
2018-04-12T19:24:03.760Z,20.20
2018-04-12T19:26:31.993Z,20.10
2018-04-12T19:28:59.509Z,20.10
2018-04-12T19:31:27.196Z,20.20
2018-04-12T19:33:55.302Z,20.10
2018-04-12T19:36:22.917Z,20.10
2018-04-12T19:38:50.561Z,20.10
2018-04-12T19:41:18.885Z,19.90
2018-04-12T19:43:46.406Z,19.90
2018-04-12T19:46:13.941Z,19.90
2018-04-12T19:48:42.435Z,19.90
2018-04-12T19:51:10.752Z,19.90
2018-04-12T19:53:38.450Z,19.80
2018-04-12T19:56:05.970Z,19.80
2018-04-12T19:58:33.696Z,19.80
2018-04-12T20:01:01.989Z,19.80
2018-04-12T20:03:29.557Z,19.70
2018-04-12T20:05:57.103Z,19.80
2018-04-12T20:08:25.405Z,19.90
2018-04-12T20:10:52.931Z,19.80
2018-04-12T20:13:20.459Z,19.80
2018-04-12T20:15:47.977Z,19.80
2018-04-12T20:18:15.484Z,19.70
2018-04-12T20:20:43.016Z,19.70
2018-04-12T20:23:10.565Z,19.60
2018-04-12T20:25:52.302Z,19.60
2018-04-12T20:28:22.553Z,19.50
2018-04-12T20:30:56.073Z,19.50
2018-04-12T20:33:23.665Z,19.50
2018-04-12T20:35:51.182Z,19.50
2018-04-12T20:38:18.730Z,19.40
2018-04-12T20:40:46.263Z,19.40
2018-04-12T20:43:13.787Z,19.40
2018-04-12T20:45:41.347Z,19.50
2018-04-12T20:48:08.865Z,19.40
2018-04-12T20:50:37.176Z,19.40
2018-04-12T20:53:04.834Z,19.40
2018-04-12T21:09:22.998Z,19.10
2018-04-12T21:14:39.160Z,19.00
2018-04-12T21:17:07.465Z,18.90
2018-04-12T21:19:34.992Z,18.90
2018-04-12T21:22:02.537Z,18.90
2018-04-12T21:24:30.919Z,18.80
2018-04-12T21:26:58.431Z,18.90
2018-04-12T21:29:25.982Z,18.80
2018-04-12T21:31:53.543Z,18.80
2018-04-12T21:34:21.112Z,18.80
2018-04-12T21:36:48.664Z,18.80
2018-04-12T21:39:16.175Z,18.90
2018-04-12T21:41:43.749Z,18.90
2018-04-12T21:44:11.283Z,18.90
2018-04-12T21:46:38.845Z,18.90
2018-04-12T21:49:06.390Z,18.80
2018-04-12T21:51:35.214Z,18.80
2018-04-12T21:54:02.746Z,18.80
2018-04-12T21:56:30.257Z,18.80
2018-04-12T21:59:07.113Z,18.80
2018-04-12T22:01:35.388Z,18.70
2018-04-12T22:04:03.692Z,18.60
2018-04-12T22:06:31.213Z,18.60
2018-04-12T22:08:58.812Z,18.60
2018-04-12T22:11:26.400Z,18.60
2018-04-12T22:13:54.687Z,18.60
2018-04-12T22:16:22.253Z,18.60
2018-04-12T22:18:49.793Z,18.60
2018-04-12T22:21:17.313Z,18.50
2018-04-12T22:23:45.628Z,18.40
2018-04-12T22:26:13.127Z,18.40
2018-04-12T22:28:42.140Z,18.30
2018-04-12T22:31:10.434Z,18.50
2018-04-12T22:33:37.950Z,18.40
2018-04-12T22:36:05.508Z,18.50
2018-04-12T22:38:33.027Z,18.50
2018-04-12T22:41:00.690Z,18.50
2018-04-12T22:43:28.252Z,18.40
2018-04-12T22:45:55.794Z,18.40
2018-04-12T22:48:24.145Z,18.40
2018-04-12T22:50:51.644Z,18.40
2018-04-12T22:53:19.200Z,18.50
2018-04-12T22:55:47.118Z,18.50
2018-04-12T22:58:14.798Z,18.50
2018-04-12T23:00:42.344Z,18.50
2018-04-12T23:03:09.918Z,18.40
2018-04-12T23:05:37.450Z,18.40
2018-04-12T23:08:04.955Z,18.50
2018-04-12T23:10:33.259Z,18.60
2018-04-12T23:13:00.793Z,18.50
2018-04-12T23:15:28.328Z,18.60
2018-04-12T23:17:56.606Z,18.60
2018-04-12T23:20:24.222Z,18.50
2018-04-12T23:22:51.735Z,18.50
2018-04-12T23:25:20.112Z,18.50
2018-04-12T23:27:47.634Z,18.50
2018-04-12T23:30:15.148Z,18.50
2018-04-12T23:32:43.424Z,18.30
2018-04-12T23:35:11.700Z,18.40
2018-04-12T23:37:39.968Z,18.40
2018-04-12T23:40:07.534Z,18.40
2018-04-12T23:42:35.095Z,18.40
2018-04-12T23:45:02.699Z,18.40
2018-04-12T23:47:30.216Z,18.40
2018-04-12T23:49:58.525Z,18.30
2018-04-12T23:52:26.050Z,18.30
2018-04-12T23:54:53.578Z,18.30
2018-04-12T23:57:21.110Z,18.20
2018-04-12T23:59:48.639Z,18.30
